»·PEaware :: N37WH KRNO-KRDD

N37WH :: KRNO-KRDD

FLIGHT INFORMATION

Flight Status: Arrived
Operator: Privately registered:
United States
More flights under this callsign
Pilot: Nate M. (12976)
Aircraft: GULFSTREAM G-1159C GULFSTREAM 4
(GLF4)
More flights by this aircraft type
Origin: KRNO Reno/Tahoe Intl
United States
Destination: KRDD Redding Mun
United States
More flights between these airports :: More routes between these airports
Route: +PVINE3 CRDZZ MRGGO V332 RBL
File this flight plan on PilotEdge
Remarks:
Altitude:
(Current/Filed)
24,000ft
Speed:
(Current/Filed)
400kts
Departed: 27-Aug-19 02:30 PM
Arrived: 27-Aug-19 03:03 PM
Distance/Time
Traveled:
131nm/0:32
Distance/Time
To Go:
Arrived

Flight Plot

Page will automatically refresh every two minutes.

Flight plan parsing failed; only flown route is shown


Map Options




Map Legend


Flown Route
Filed Route
Departure Airport
Arrival Airport
Navaid (VOR, NDB)
Fix

Horizontal Profiles

Position Reports

Time Latitude Longitude Heading Altitude Ground
Speed
27-Aug-19 14:10 39.502092 -119.764819 181 4408ft 0kts
27-Aug-19 14:11 39.502092 -119.764819 181 4408ft 0kts
27-Aug-19 14:12 39.502092 -119.764819 181 4408ft 0kts
27-Aug-19 14:13 39.502092 -119.764819 181 4408ft 0kts
27-Aug-19 14:14 39.502092 -119.764819 181 4408ft 0kts
27-Aug-19 14:15 39.502092 -119.764819 181 4408ft 0kts
27-Aug-19 14:16 39.502092 -119.764819 181 4408ft 0kts
27-Aug-19 14:17 39.502092 -119.764819 181 4408ft 0kts
27-Aug-19 14:18 39.502092 -119.764819 181 4408ft 0kts
27-Aug-19 14:19 39.502092 -119.764819 181 4408ft 0kts
27-Aug-19 14:20 39.502092 -119.764819 181 4408ft 0kts
27-Aug-19 14:21 39.502092 -119.764819 181 4408ft 0kts
27-Aug-19 14:22 39.502092 -119.764819 181 4408ft 0kts
27-Aug-19 14:23 39.502092 -119.764819 181 4408ft 0kts
27-Aug-19 14:24 39.502092 -119.764819 181 4408ft 0kts
27-Aug-19 14:25 39.502092 -119.764819 181 4408ft 0kts
27-Aug-19 14:26 39.499328 -119.765793 180 4406ft 33kts
27-Aug-19 14:27 39.492070 -119.765113 178 4408ft 26kts
27-Aug-19 14:28 39.489207 -119.767792 272 4411ft 12kts
27-Aug-19 14:29 39.503150 -119.769325 358 4527ft 174kts
27-Aug-19 14:30 39.552745 -119.768394 1 7440ft 259kts
27-Aug-19 14:31 39.611718 -119.809424 303 10919ft 272kts
27-Aug-19 14:32 39.649359 -119.896820 300 14438ft 295kts
27-Aug-19 14:33 39.652242 -120.001191 254 18061ft 330kts
27-Aug-19 14:34 39.623644 -120.092235 252 20413ft 379kts
27-Aug-19 14:35 39.579453 -120.225671 252 23445ft 428kts
27-Aug-19 14:36 39.528323 -120.378934 251 24330ft 501kts
27-Aug-19 14:37 39.472741 -120.544288 251 24302ft 503kts
27-Aug-19 14:38 39.417516 -120.708554 251 24213ft 504kts
27-Aug-19 14:39 39.361690 -120.873300 251 24193ft 506kts
27-Aug-19 14:40 39.305442 -121.037997 250 24192ft 505kts
27-Aug-19 14:41 39.252872 -121.202127 265 24187ft 488kts
27-Aug-19 14:42 39.280250 -121.331786 308 23727ft 479kts
27-Aug-19 14:43 39.368025 -121.435797 319 22371ft 482kts
27-Aug-19 14:44 39.470876 -121.547331 319 20856ft 488kts
27-Aug-19 14:45 39.574361 -121.659782 319 19031ft 488kts
27-Aug-19 14:46 39.675925 -121.770091 319 17037ft 471kts
27-Aug-19 14:47 39.772240 -121.875698 319 14999ft 447kts
27-Aug-19 14:48 39.865381 -121.978050 319 12786ft 437kts
27-Aug-19 14:49 39.956245 -122.078270 319 10561ft 404kts
27-Aug-19 14:50 40.023583 -122.152958 320 10003ft 278kts
27-Aug-19 14:51 40.081419 -122.217116 320 10006ft 272kts
27-Aug-19 14:52 40.149689 -122.230653 4 10026ft 271kts
27-Aug-19 14:53 40.226160 -122.220955 4 10009ft 282kts
27-Aug-19 14:54 40.301426 -122.211765 1 8879ft 251kts
27-Aug-19 14:55 40.371357 -122.206603 2 7382ft 255kts
27-Aug-19 14:56 40.442402 -122.201940 2 5890ft 259kts
27-Aug-19 14:57 40.514631 -122.197686 2 4392ft 262kts
27-Aug-19 14:58 40.584194 -122.198490 328 3044ft 237kts
27-Aug-19 14:59 40.595149 -122.271357 240 2990ft 204kts
27-Aug-19 15:00 40.549809 -122.293749 184 1640ft 155kts
27-Aug-19 15:01 40.512541 -122.294817 180 502ft 98kts
27-Aug-19 15:02 40.501254 -122.295345 314 496ft 8kts
27-Aug-19 15:03 40.506060 -122.299003 353 499ft 19kts
27-Aug-19 15:04 40.507219 -122.299454 321 500ft 0kts
27-Aug-19 15:05 40.507219 -122.299454 321 500ft 0kts

Navigation Log

Ident Type
Flight plan parsing failed, navigation log unavailable